createdAt,value
2022-12-31T00:01:23.615Z,8.90
2022-12-31T00:03:51.977Z,9.20
2022-12-31T00:06:28.569Z,9.40
2022-12-31T00:08:58.154Z,9.60
2022-12-31T00:11:28.256Z,9.50
2022-12-31T00:13:55.854Z,9.50
2022-12-31T00:16:28.858Z,9.50
2022-12-31T00:18:59.677Z,9.60
2022-12-31T00:21:30.029Z,9.60
2022-12-31T00:23:58.264Z,9.50
2022-12-31T00:26:29.563Z,9.60
2022-12-31T00:28:59.420Z,9.70
2022-12-31T00:31:35.654Z,9.80
2022-12-31T00:34:04.279Z,9.80
2022-12-31T00:36:37.560Z,9.80
2022-12-31T00:39:07.317Z,9.80
2022-12-31T00:41:35.326Z,9.80
2022-12-31T00:44:03.262Z,9.70
2022-12-31T00:46:32.005Z,9.60
2022-12-31T00:48:59.659Z,9.70
2022-12-31T00:51:30.223Z,9.70
2022-12-31T00:53:59.463Z,9.60
2022-12-31T00:56:30.674Z,9.70
2022-12-31T00:59:00.605Z,10.00
2022-12-31T01:01:31.066Z,10.00
2022-12-31T01:04:05.135Z,10.00
2022-12-31T01:06:33.053Z,10.20
2022-12-31T01:09:01.382Z,10.40
2022-12-31T01:11:31.782Z,10.40
2022-12-31T01:14:09.142Z,10.40
2022-12-31T01:16:42.779Z,10.40
2022-12-31T01:19:13.047Z,10.40
2022-12-31T01:21:41.810Z,10.40
2022-12-31T01:24:11.147Z,10.40
2022-12-31T01:26:40.596Z,10.30
2022-12-31T01:29:09.236Z,10.30
2022-12-31T01:31:37.469Z,10.00
2022-12-31T01:34:06.696Z,9.90
2022-12-31T01:36:37.099Z,9.60
2022-12-31T01:39:07.196Z,9.60
2022-12-31T01:41:37.293Z,9.70
2022-12-31T01:44:24.920Z,9.80
2022-12-31T01:46:59.003Z,9.90
2022-12-31T01:49:31.981Z,10.00
2022-12-31T01:52:11.397Z,10.00
2022-12-31T01:54:45.131Z,9.90
2022-12-31T01:57:14.097Z,9.70
2022-12-31T01:59:43.547Z,9.70
2022-12-31T02:02:12.032Z,9.80
2022-12-31T02:04:39.892Z,9.90
2022-12-31T02:07:09.845Z,10.00
2022-12-31T02:09:41.086Z,10.10
2022-12-31T02:12:11.743Z,10.10
2022-12-31T02:14:43.983Z,10.10
2022-12-31T02:17:24.229Z,10.10
2022-12-31T02:20:25.886Z,10.20
2022-12-31T02:23:03.182Z,10.20
2022-12-31T02:26:03.717Z,10.30
2022-12-31T02:28:59.086Z,10.30
2022-12-31T02:31:45.486Z,10.40
2022-12-31T02:34:28.860Z,10.40
2022-12-31T02:37:00.107Z,10.50
2022-12-31T02:39:29.380Z,10.30
2022-12-31T02:41:56.921Z,10.10
2022-12-31T02:44:44.507Z,10.00
2022-12-31T02:47:18.790Z,9.80
2022-12-31T02:50:14.618Z,9.80
2022-12-31T02:53:22.992Z,9.80
2022-12-31T02:56:19.183Z,9.80
2022-12-31T02:59:29.227Z,9.70
2022-12-31T03:02:15.569Z,9.50
2022-12-31T03:04:51.686Z,9.50
2022-12-31T03:07:25.165Z,9.60
2022-12-31T03:09:52.895Z,9.70
2022-12-31T03:12:42.182Z,9.70
2022-12-31T03:15:20.573Z,9.70
2022-12-31T03:18:05.910Z,9.70
2022-12-31T03:21:06.073Z,9.70
2022-12-31T03:24:03.469Z,9.60
2022-12-31T03:26:30.846Z,9.60
2022-12-31T03:28:58.277Z,9.50
2022-12-31T03:31:26.035Z,9.60
2022-12-31T03:33:53.823Z,9.60
2022-12-31T03:36:22.791Z,9.70
2022-12-31T03:38:52.820Z,9.60
2022-12-31T03:41:21.219Z,9.60
2022-12-31T03:43:48.516Z,9.50
2022-12-31T03:46:16.940Z,9.50
2022-12-31T03:48:44.401Z,9.50
2022-12-31T03:51:11.703Z,9.30
2022-12-31T03:53:40.034Z,9.20
2022-12-31T03:56:07.910Z,9.30
2022-12-31T03:58:35.712Z,9.40
2022-12-31T04:01:04.977Z,9.30
2022-12-31T04:03:33.082Z,9.40
2022-12-31T04:06:01.222Z,9.40
2022-12-31T04:08:29.931Z,9.40
2022-12-31T04:10:58.365Z,9.20
2022-12-31T04:13:26.921Z,9.20
2022-12-31T04:15:56.897Z,9.20
2022-12-31T04:18:24.919Z,9.20
2022-12-31T04:20:52.394Z,9.30
2022-12-31T04:23:20.714Z,9.40
2022-12-31T04:25:48.106Z,9.40
2022-12-31T04:28:16.078Z,9.40
2022-12-31T04:30:48.806Z,9.40
2022-12-31T04:33:16.274Z,9.40
2022-12-31T04:35:44.873Z,9.50
2022-12-31T04:38:12.558Z,9.20
2022-12-31T04:40:58.428Z,9.10
2022-12-31T04:43:25.767Z,9.10
2022-12-31T04:45:56.144Z,9.20
2022-12-31T04:48:24.807Z,9.30
2022-12-31T04:50:52.543Z,9.40
2022-12-31T04:53:19.905Z,9.40
2022-12-31T04:55:47.342Z,9.40
2022-12-31T04:58:14.892Z,9.50
2022-12-31T05:00:50.768Z,9.50
2022-12-31T05:03:19.032Z,9.10
2022-12-31T05:05:47.680Z,8.90
2022-12-31T05:08:16.854Z,8.90
2022-12-31T05:10:50.020Z,9.10
2022-12-31T05:13:17.993Z,9.20
2022-12-31T05:15:53.095Z,9.30
2022-12-31T05:18:21.323Z,9.40
2022-12-31T05:20:50.161Z,9.20
2022-12-31T05:23:18.658Z,9.20
2022-12-31T05:25:48.088Z,9.20
2022-12-31T05:28:17.593Z,9.20
2022-12-31T05:30:51.628Z,9.00
2022-12-31T05:33:20.014Z,9.10
2022-12-31T05:35:47.463Z,9.40
2022-12-31T05:38:15.814Z,9.40
2022-12-31T05:40:43.268Z,9.50
2022-12-31T05:43:10.791Z,9.60
2022-12-31T05:45:44.897Z,9.50
2022-12-31T05:48:14.789Z,9.40
2022-12-31T05:50:42.027Z,9.40
2022-12-31T05:53:09.452Z,9.40
2022-12-31T05:55:36.803Z,9.50
2022-12-31T05:58:04.795Z,9.50
2022-12-31T06:00:32.778Z,9.50
2022-12-31T06:03:00.288Z,9.60
2022-12-31T06:05:27.971Z,9.40
2022-12-31T06:07:55.803Z,9.50
2022-12-31T06:10:23.618Z,9.50
2022-12-31T06:12:51.614Z,9.60
2022-12-31T06:15:19.172Z,9.60
2022-12-31T06:17:46.419Z,9.70
2022-12-31T06:20:17.024Z,9.60
2022-12-31T06:22:45.420Z,9.40
2022-12-31T06:25:13.324Z,9.40
2022-12-31T06:27:40.720Z,9.30
2022-12-31T06:30:09.209Z,9.40
2022-12-31T06:32:36.830Z,9.30
2022-12-31T06:35:06.955Z,9.20
2022-12-31T06:37:35.371Z,9.20
2022-12-31T06:40:03.532Z,9.00
2022-12-31T06:42:32.686Z,9.00
2022-12-31T06:45:01.564Z,8.90
2022-12-31T06:47:29.511Z,9.00
2022-12-31T06:49:57.290Z,9.00
2022-12-31T06:52:24.884Z,8.80
2022-12-31T06:54:53.213Z,8.80
2022-12-31T06:57:21.772Z,8.90
2022-12-31T06:59:49.704Z,9.10
2022-12-31T07:02:23.675Z,9.30
2022-12-31T07:05:16.107Z,9.40
2022-12-31T07:08:03.918Z,9.40
2022-12-31T07:10:51.910Z,9.50
2022-12-31T07:13:38.568Z,9.40
2022-12-31T07:16:38.660Z,9.20
2022-12-31T07:19:25.874Z,9.00
2022-12-31T07:21:56.220Z,9.20
2022-12-31T07:24:24.131Z,9.40
2022-12-31T07:27:17.893Z,9.50
2022-12-31T07:29:59.096Z,9.60
2022-12-31T07:32:57.149Z,9.70
2022-12-31T07:35:50.488Z,9.40
2022-12-31T07:38:24.025Z,9.40
2022-12-31T07:41:22.173Z,9.60
2022-12-31T07:44:23.149Z,9.80
2022-12-31T07:47:01.454Z,10.10
2022-12-31T07:49:31.021Z,10.50
2022-12-31T07:51:59.117Z,10.60
2022-12-31T07:54:26.572Z,10.80
2022-12-31T07:56:59.362Z,10.90
2022-12-31T07:59:46.995Z,11.10
2022-12-31T08:02:35.951Z,10.80
2022-12-31T08:05:14.417Z,10.70
2022-12-31T08:08:13.170Z,11.00
2022-12-31T08:11:22.616Z,11.30
2022-12-31T08:13:52.959Z,11.60
2022-12-31T08:16:24.237Z,11.90
2022-12-31T08:18:53.188Z,12.00
2022-12-31T08:21:44.763Z,12.10
2022-12-31T08:24:22.914Z,11.70
2022-12-31T08:27:03.397Z,11.30
2022-12-31T08:29:35.925Z,11.20
2022-12-31T08:32:20.687Z,11.20
2022-12-31T08:35:02.976Z,11.30
2022-12-31T08:37:45.156Z,11.40
2022-12-31T08:40:31.976Z,11.60
2022-12-31T08:43:27.775Z,11.90
2022-12-31T08:45:59.678Z,12.30
2022-12-31T08:48:40.131Z,12.70
2022-12-31T08:51:15.611Z,13.10
2022-12-31T08:53:43.536Z,13.10
2022-12-31T08:56:20.637Z,13.20
2022-12-31T08:59:06.042Z,13.50
2022-12-31T09:02:01.219Z,13.50
2022-12-31T09:04:56.045Z,13.60
2022-12-31T09:07:36.247Z,14.00
2022-12-31T09:10:18.298Z,14.70
2022-12-31T09:13:13.605Z,15.80
2022-12-31T09:15:47.236Z,17.10
2022-12-31T09:18:16.597Z,18.60
2022-12-31T09:20:44.848Z,20.00
2022-12-31T09:30:00.482Z,23.80
2022-12-31T09:32:49.345Z,22.90
2022-12-31T09:35:36.086Z,22.70
2022-12-31T09:38:23.018Z,23.20
2022-12-31T09:41:17.638Z,23.60
2022-12-31T09:44:31.731Z,24.20
2022-12-31T09:47:36.988Z,25.30
2022-12-31T09:50:21.815Z,26.30
2022-12-31T09:53:14.398Z,26.60
2022-12-31T09:56:13.464Z,27.10
2022-12-31T09:59:20.962Z,26.90
2022-12-31T10:02:01.800Z,27.50
2022-12-31T10:04:52.519Z,27.90
2022-12-31T10:07:21.266Z,27.20
2022-12-31T10:09:57.059Z,26.90
2022-12-31T10:12:52.504Z,27.90
2022-12-31T10:15:50.861Z,27.40
2022-12-31T10:18:29.293Z,27.50
2022-12-31T10:21:19.995Z,28.10
2022-12-31T10:24:08.783Z,28.00
2022-12-31T10:27:01.791Z,27.80
2022-12-31T10:29:49.216Z,27.40
2022-12-31T10:32:24.987Z,27.60
2022-12-31T10:35:26.131Z,28.30
2022-12-31T10:38:12.553Z,28.30
2022-12-31T10:40:42.772Z,27.50
2022-12-31T10:43:28.243Z,28.10
2022-12-31T10:46:22.673Z,28.70
2022-12-31T10:49:22.181Z,29.20
2022-12-31T10:52:16.812Z,28.90
2022-12-31T10:55:02.585Z,28.50
2022-12-31T10:57:52.302Z,28.00
2022-12-31T11:00:21.359Z,27.20
2022-12-31T11:03:13.165Z,27.50
2022-12-31T11:06:23.285Z,27.60
2022-12-31T11:09:10.595Z,27.10
2022-12-31T11:12:08.317Z,27.90
2022-12-31T11:14:48.343Z,29.10
2022-12-31T11:17:21.202Z,28.70
2022-12-31T11:20:17.290Z,26.60
2022-12-31T11:23:04.960Z,26.00
2022-12-31T11:25:44.739Z,26.40
2022-12-31T11:29:04.506Z,25.80
2022-12-31T11:32:20.623Z,25.40
2022-12-31T11:35:01.015Z,25.50
2022-12-31T11:37:49.830Z,24.80
2022-12-31T11:40:38.393Z,24.20
2022-12-31T11:43:20.235Z,23.90
2022-12-31T11:46:06.790Z,23.40
2022-12-31T11:49:05.310Z,22.70
2022-12-31T11:51:54.050Z,22.80
2022-12-31T11:54:58.206Z,22.50
2022-12-31T11:57:28.309Z,22.00
2022-12-31T12:00:10.327Z,21.50
2022-12-31T12:02:46.995Z,21.50
2022-12-31T12:05:17.433Z,21.50
2022-12-31T12:07:45.097Z,21.50
2022-12-31T12:10:33.573Z,21.80
2022-12-31T12:13:27.714Z,21.90
2022-12-31T12:16:05.523Z,21.70
2022-12-31T12:18:47.558Z,21.50
2022-12-31T12:21:20.823Z,21.10
2022-12-31T12:23:57.315Z,21.30
2022-12-31T12:26:41.830Z,21.50
2022-12-31T12:29:21.636Z,21.30
2022-12-31T12:32:16.008Z,21.00
2022-12-31T12:34:49.387Z,20.70
2022-12-31T12:37:30.148Z,20.80
2022-12-31T12:40:19.469Z,20.90
2022-12-31T12:42:52.024Z,21.10
2022-12-31T12:45:51.487Z,21.70
2022-12-31T12:48:42.629Z,22.00
2022-12-31T12:51:43.989Z,21.10
2022-12-31T12:54:48.476Z,20.90
2022-12-31T12:57:25.836Z,20.50
2022-12-31T13:00:16.233Z,20.90
2022-12-31T13:03:08.137Z,21.30
2022-12-31T13:05:55.400Z,21.70
2022-12-31T13:08:29.203Z,22.00
2022-12-31T13:11:18.913Z,22.10
2022-12-31T13:14:31.357Z,22.20
2022-12-31T13:17:13.873Z,22.30
2022-12-31T13:20:05.837Z,21.80
2022-12-31T13:22:48.225Z,22.20
2022-12-31T13:25:38.849Z,22.50
2022-12-31T13:28:12.016Z,22.80
2022-12-31T13:30:48.247Z,22.90
2022-12-31T13:33:29.104Z,22.50
2022-12-31T13:36:08.494Z,21.90
2022-12-31T13:39:02.547Z,21.60
2022-12-31T13:42:10.996Z,20.80
2022-12-31T13:44:56.313Z,21.00
2022-12-31T13:47:43.104Z,21.80
2022-12-31T13:50:20.390Z,21.90
2022-12-31T13:52:54.543Z,21.70
2022-12-31T13:55:45.562Z,21.80
2022-12-31T13:58:20.824Z,22.60
2022-12-31T14:00:59.029Z,23.30
2022-12-31T14:03:49.936Z,23.80
2022-12-31T14:06:40.674Z,24.20
2022-12-31T14:09:15.499Z,25.00
2022-12-31T14:12:24.853Z,24.50
2022-12-31T14:15:04.051Z,24.20
2022-12-31T14:17:49.679Z,23.80
2022-12-31T14:20:49.987Z,23.20
2022-12-31T14:23:46.355Z,22.60
2022-12-31T14:26:17.072Z,23.00
2022-12-31T14:29:01.557Z,23.40
2022-12-31T14:31:48.777Z,24.20
2022-12-31T14:34:16.443Z,24.40
2022-12-31T14:37:07.891Z,23.20
2022-12-31T14:40:23.632Z,21.90
2022-12-31T14:43:06.662Z,21.40
2022-12-31T14:45:56.687Z,20.80
2022-12-31T14:48:37.135Z,20.40
2022-12-31T14:51:05.970Z,19.70
2022-12-31T14:53:34.787Z,19.10
2022-12-31T14:56:28.621Z,18.70
2022-12-31T14:59:01.748Z,18.10
2022-12-31T15:01:30.254Z,17.40
2022-12-31T15:03:59.638Z,16.90
2022-12-31T15:06:43.499Z,16.80
2022-12-31T15:09:36.167Z,16.80
2022-12-31T15:12:30.562Z,16.80
2022-12-31T15:15:24.289Z,16.80
2022-12-31T15:17:55.042Z,16.70
2022-12-31T15:21:02.981Z,16.00
2022-12-31T15:23:38.969Z,15.60
2022-12-31T15:26:20.478Z,15.60
2022-12-31T15:29:05.380Z,15.80
2022-12-31T15:31:35.694Z,15.60
2022-12-31T15:34:06.143Z,15.20
2022-12-31T15:36:39.371Z,14.50
2022-12-31T15:39:28.624Z,14.20
2022-12-31T15:45:17.371Z,13.90
2022-12-31T15:47:50.600Z,14.00
2022-12-31T15:50:23.629Z,14.40
2022-12-31T15:53:02.175Z,14.70
2022-12-31T15:55:34.363Z,14.40
2022-12-31T15:58:18.985Z,14.50
2022-12-31T16:01:05.158Z,14.50
2022-12-31T16:03:35.197Z,14.40
2022-12-31T16:06:13.598Z,14.40
2022-12-31T16:08:46.882Z,14.30
2022-12-31T16:11:16.785Z,14.00
2022-12-31T16:13:50.527Z,13.70
2022-12-31T16:16:24.614Z,13.70
2022-12-31T16:19:00.698Z,13.90
2022-12-31T16:21:33.128Z,14.00
2022-12-31T16:24:29.864Z,14.20
2022-12-31T16:27:02.896Z,14.30
2022-12-31T16:29:31.107Z,14.00
2022-12-31T16:31:59.583Z,13.50
2022-12-31T16:34:28.532Z,13.10
2022-12-31T16:37:01.554Z,13.10
2022-12-31T16:39:32.778Z,13.30
2022-12-31T16:42:20.385Z,13.50
2022-12-31T16:44:49.106Z,13.60
2022-12-31T16:47:41.583Z,13.70
2022-12-31T16:50:17.331Z,13.70
2022-12-31T16:52:48.459Z,13.70
2022-12-31T16:55:23.673Z,13.60
2022-12-31T16:57:55.902Z,13.60
2022-12-31T17:00:26.440Z,13.60
2022-12-31T17:03:15.661Z,13.60
2022-12-31T17:06:07.400Z,13.50
2022-12-31T17:08:45.068Z,13.30
2022-12-31T17:11:52.153Z,13.20
2022-12-31T17:14:23.449Z,12.90
2022-12-31T17:17:03.652Z,12.50
2022-12-31T17:19:42.832Z,12.30
2022-12-31T17:22:36.968Z,12.30
2022-12-31T17:25:15.344Z,12.50
2022-12-31T17:27:54.380Z,12.70
2022-12-31T17:30:45.704Z,12.80
2022-12-31T17:33:21.815Z,12.70
2022-12-31T17:35:55.233Z,12.30
2022-12-31T17:38:26.007Z,12.00
2022-12-31T17:40:54.902Z,11.90
2022-12-31T17:43:23.895Z,12.00
2022-12-31T17:45:55.865Z,12.20
2022-12-31T17:48:25.168Z,12.10
2022-12-31T17:51:01.214Z,12.20
2022-12-31T17:53:29.269Z,12.30
2022-12-31T17:56:02.505Z,12.40
2022-12-31T17:58:43.726Z,12.40
2022-12-31T18:01:16.074Z,12.20
2022-12-31T18:03:44.125Z,12.20
2022-12-31T18:06:16.495Z,12.30
2022-12-31T18:08:45.279Z,12.50
2022-12-31T18:11:18.566Z,12.60
2022-12-31T18:13:47.099Z,12.80
2022-12-31T18:16:15.473Z,12.70
2022-12-31T18:18:43.971Z,12.50
2022-12-31T18:21:34.730Z,12.60
2022-12-31T18:26:34.140Z,12.30
2022-12-31T18:29:19.467Z,12.20
2022-12-31T18:31:49.295Z,12.10
2022-12-31T18:34:18.531Z,12.00
2022-12-31T18:36:46.665Z,11.90
2022-12-31T18:39:14.388Z,11.90
2022-12-31T18:41:51.456Z,11.70
2022-12-31T18:44:19.700Z,11.70
2022-12-31T18:46:47.823Z,11.60
2022-12-31T18:49:15.086Z,11.70
2022-12-31T18:51:43.106Z,11.80
2022-12-31T18:54:12.110Z,11.50
2022-12-31T18:56:46.521Z,11.40
2022-12-31T18:59:15.149Z,11.50
2022-12-31T19:01:43.150Z,11.70
2022-12-31T19:04:16.885Z,11.70
2022-12-31T19:06:48.720Z,11.70
2022-12-31T19:09:43.586Z,11.80
2022-12-31T19:12:05.502Z,11.70
2022-12-31T19:14:32.891Z,11.30
2022-12-31T19:19:28.970Z,11.40
2022-12-31T19:21:56.324Z,11.30
2022-12-31T19:24:29.627Z,11.10
2022-12-31T19:26:57.117Z,11.10
2022-12-31T19:29:27.051Z,11.40
2022-12-31T19:31:54.910Z,11.50
2022-12-31T19:34:23.128Z,11.70
2022-12-31T19:36:50.466Z,11.70
2022-12-31T19:39:21.908Z,11.70
2022-12-31T19:41:56.615Z,11.70
2022-12-31T19:44:26.908Z,11.70
2022-12-31T19:46:55.223Z,11.70
2022-12-31T19:49:23.551Z,11.50
2022-12-31T19:51:51.237Z,11.50
2022-12-31T19:54:18.743Z,11.30
2022-12-31T19:56:46.438Z,11.10
2022-12-31T19:59:13.826Z,11.30
2022-12-31T20:01:42.695Z,11.30
2022-12-31T20:04:10.274Z,11.10
2022-12-31T20:06:38.707Z,10.70
2022-12-31T20:09:06.067Z,10.40
2022-12-31T20:11:33.549Z,10.70
2022-12-31T20:14:02.842Z,10.90
2022-12-31T20:16:33.078Z,11.00
2022-12-31T20:19:01.047Z,11.10
2022-12-31T20:21:29.579Z,10.70
2022-12-31T20:23:57.352Z,10.50
2022-12-31T20:26:26.055Z,10.40
2022-12-31T20:28:54.153Z,10.60
2022-12-31T20:31:24.945Z,10.70
2022-12-31T20:33:54.363Z,10.90
2022-12-31T20:36:24.172Z,11.00
2022-12-31T20:38:51.814Z,11.10
2022-12-31T20:41:22.242Z,11.30
2022-12-31T20:43:51.588Z,11.10
2022-12-31T20:46:22.592Z,11.00
2022-12-31T20:48:52.591Z,11.10
2022-12-31T20:51:22.186Z,11.10
2022-12-31T20:53:57.650Z,11.20
2022-12-31T20:56:28.054Z,11.10
2022-12-31T20:58:55.510Z,10.80
2022-12-31T21:01:23.866Z,10.70
2022-12-31T21:04:08.611Z,10.70
2022-12-31T21:06:36.789Z,10.80
2022-12-31T21:09:07.534Z,10.80
2022-12-31T21:11:54.484Z,10.70
2022-12-31T21:14:22.125Z,10.50
2022-12-31T21:16:50.098Z,10.20
2022-12-31T21:19:17.551Z,10.40
2022-12-31T21:21:44.973Z,10.50
2022-12-31T21:24:12.844Z,10.20
2022-12-31T21:26:41.324Z,10.10
2022-12-31T21:29:09.952Z,10.00
2022-12-31T21:31:37.404Z,10.00
2022-12-31T21:34:04.663Z,10.20
2022-12-31T21:36:33.198Z,10.30
2022-12-31T21:39:01.472Z,10.40
2022-12-31T21:41:48.157Z,10.40
2022-12-31T21:44:16.736Z,10.50
2022-12-31T21:47:15.944Z,10.50
2022-12-31T21:49:31.591Z,10.50
2022-12-31T21:52:45.267Z,10.40
2022-12-31T21:55:43.719Z,9.80
2022-12-31T21:58:31.696Z,9.60
2022-12-31T22:01:19.930Z,9.70
2022-12-31T22:03:48.148Z,10.00
2022-12-31T22:06:22.615Z,10.00
2022-12-31T22:08:52.334Z,10.00
2022-12-31T22:15:21.752Z,10.00
2022-12-31T22:17:54.595Z,10.20
2022-12-31T22:20:29.516Z,10.10
2022-12-31T22:22:56.985Z,10.20
2022-12-31T22:25:24.378Z,10.20
2022-12-31T22:28:27.721Z,10.30
2022-12-31T22:30:45.615Z,10.40
2022-12-31T22:33:12.974Z,10.30
2022-12-31T22:35:41.374Z,10.00
2022-12-31T22:38:12.137Z,9.90
2022-12-31T22:40:40.400Z,10.00
2022-12-31T22:43:07.728Z,10.10
2022-12-31T22:45:42.329Z,10.20
2022-12-31T22:48:11.165Z,10.30
2022-12-31T22:50:39.916Z,10.50
2022-12-31T22:53:07.367Z,10.40
2022-12-31T22:55:35.916Z,9.90
2022-12-31T22:58:03.776Z,9.70
2022-12-31T23:00:40.612Z,9.70
2022-12-31T23:03:08.402Z,9.90
2022-12-31T23:05:35.992Z,10.00
2022-12-31T23:08:11.867Z,10.10
2022-12-31T23:11:00.509Z,10.20
2022-12-31T23:13:50.999Z,10.20
2022-12-31T23:16:40.230Z,10.20
2022-12-31T23:19:28.557Z,10.20
2022-12-31T23:22:15.603Z,10.00
2022-12-31T23:24:43.978Z,9.70
2022-12-31T23:27:11.864Z,9.40
2022-12-31T23:29:46.661Z,9.00
2022-12-31T23:32:16.729Z,9.00
2022-12-31T23:34:46.733Z,9.30
2022-12-31T23:37:14.886Z,9.50
2022-12-31T23:39:43.468Z,9.40
2022-12-31T23:42:10.941Z,9.30
2022-12-31T23:44:39.061Z,9.30
2022-12-31T23:47:06.781Z,9.20
2022-12-31T23:49:35.249Z,8.90
2022-12-31T23:52:09.722Z,8.80
2022-12-31T23:54:48.548Z,9.00
2022-12-31T23:57:17.615Z,9.20
2022-12-31T23:59:46.408Z,9.40
